Valemount, Canada
Current Conditions -  °F | °C
As of 8:00 AM on Sunday 21 Dec 2014 (Local Time) from CYWL Reporting Station
Broken Clouds Broken Clouds  
Wind Chill: -6°   Ceiling: 12000
Heat Index: -3°   Visibility: 15mi
Dew Point: -4°   Wind: 5mph
Humidity: 93%   Direction: 110°ESE
Pressure: 29.54"   Gusts: NA
Location:  52.83°N, 119.25°W
Report Text: CYWL 211600Z 11004KT 15SM FEW050 BKN120 M03/M04 A2954 RMK SC2AC5 SLP039
Loading
Personal Weather Stations






























Interactive Weather Map New forecast layout! Learn more

10-Day Weather Forecast

Advertisements
Track Severe Weather on mobile